Time;durP1;ratioP1;P1;durP2;ratioP2;P2;SDS_P1;SDS_P2;PMS_P1;PMS_P2;Temp;Humidity;BMP_temperature;BMP_pressure;BME280_temperature;BME280_humidity;BME280_pressure;Samples;Min_cycle;Max_cycle;Signal;HPM_P1;HPM_P2
2021/12/20 00:01:08;;;;;;;19.30;8.25;;;3.80;99.90;;;;;;5031297;28;20048;-68
2021/12/20 00:03:36;;;;;;;15.85;8.05;;;3.80;99.90;;;;;;5030288;28;20570;-69
2021/12/20 00:06:04;;;;;;;18.52;8.02;;;3.80;99.90;;;;;;5031160;28;20041;-68
2021/12/20 00:08:32;;;;;;;18.77;8.32;;;3.80;99.90;;;;;;5031255;28;20044;-68
2021/12/20 00:10:59;;;;;;;18.17;8.90;;;3.80;99.90;;;;;;5031093;28;20038;-68
2021/12/20 00:13:27;;;;;;;21.00;8.70;;;3.80;99.90;;;;;;5031150;28;20045;-68
2021/12/20 00:15:55;;;;;;;16.58;8.55;;;3.80;99.90;;;;;;5013556;28;20049;-68
2021/12/20 00:18:22;;;;;;;17.63;8.35;;;3.90;99.90;;;;;;5035249;28;20069;-69
2021/12/20 00:20:50;;;;;;;17.35;8.85;;;3.90;99.90;;;;;;5029931;28;20053;-68
2021/12/20 00:23:17;;;;;;;21.17;8.88;;;3.90;99.90;;;;;;5024531;28;20048;-68
2021/12/20 00:25:48;;;;;;;18.25;8.60;;;3.90;99.90;;;;;;5030901;28;20048;-68
2021/12/20 00:28:18;;;;;;;18.47;8.33;;;3.80;99.90;;;;;;5035276;28;20120;-68
2021/12/20 00:30:46;;;;;;;17.33;8.20;;;3.80;99.90;;;;;;5029629;28;20048;-68
2021/12/20 00:33:14;;;;;;;17.80;8.75;;;3.80;99.90;;;;;;5030599;28;20052;-68
2021/12/20 00:35:42;;;;;;;15.13;8.23;;;3.90;99.90;;;;;;5030625;28;20069;-68
2021/12/20 00:40:55;;;;;;;17.45;8.55;;;3.90;99.90;;;;;;5030373;28;20045;-68
2021/12/20 00:43:23;;;;;;;16.67;7.82;;;3.90;99.90;;;;;;5030325;28;20512;-67
2021/12/20 00:45:51;;;;;;;14.85;7.82;;;3.90;99.90;;;;;;5028827;28;20133;-67
2021/12/20 00:48:19;;;;;;;18.27;8.60;;;3.80;99.90;;;;;;5030506;28;20045;-68
2021/12/20 00:50:48;;;;;;;17.73;7.40;;;3.90;99.90;;;;;;5029991;28;20069;-68
2021/12/20 00:53:16;;;;;;;15.45;8.02;;;3.80;99.90;;;;;;5030158;28;20152;-68
2021/12/20 00:55:44;;;;;;;16.98;8.23;;;3.90;99.90;;;;;;5030278;28;20049;-68
2021/12/20 00:58:11;;;;;;;15.98;7.95;;;3.90;99.90;;;;;;5030534;28;20041;-68
2021/12/20 01:00:42;;;;;;;17.52;8.68;;;3.90;99.90;;;;;;5016365;28;20746;-68
2021/12/20 01:03:12;;;;;;;18.48;7.75;;;3.90;99.90;;;;;;5020532;28;20049;-68
2021/12/20 01:05:40;;;;;;;17.10;8.05;;;3.90;99.90;;;;;;5018259;28;20277;-68
2021/12/20 01:08:09;;;;;;;16.33;8.13;;;3.90;99.90;;;;;;5027204;28;20057;-68
2021/12/20 01:10:43;;;;;;;16.23;8.07;;;3.90;99.90;;;;;;5026883;28;20042;-68
2021/12/20 01:13:12;;;;;;;17.65;8.30;;;3.90;99.90;;;;;;5029147;28;20219;-68
2021/12/20 01:15:46;;;;;;;14.95;7.90;;;3.90;99.90;;;;;;5023341;28;20053;-68
2021/12/20 01:18:14;;;;;;;16.40;7.97;;;3.90;99.90;;;;;;5029843;28;20045;-69
2021/12/20 01:20:42;;;;;;;15.35;7.93;;;3.90;99.90;;;;;;5029998;28;20424;-69
2021/12/20 01:23:11;;;;;;;13.90;7.45;;;3.90;99.90;;;;;;5029778;28;20049;-69
2021/12/20 01:25:39;;;;;;;13.85;7.57;;;3.90;99.90;;;;;;5030012;28;20053;-69
2021/12/20 01:28:07;;;;;;;14.75;7.57;;;3.90;99.90;;;;;;5028643;28;20050;-69
2021/12/20 01:30:36;;;;;;;16.75;7.63;;;3.90;99.90;;;;;;5029730;28;20083;-69
2021/12/20 01:33:07;;;;;;;17.92;7.78;;;4.00;99.90;;;;;;5028591;28;20049;-69
2021/12/20 01:35:35;;;;;;;14.82;7.00;;;4.00;99.90;;;;;;5022503;28;20781;-69
2021/12/20 01:38:03;;;;;;;15.23;7.57;;;4.00;99.90;;;;;;5029489;28;20048;-69
2021/12/20 01:40:31;;;;;;;13.88;7.30;;;4.00;99.90;;;;;;5028196;28;20045;-69
2021/12/20 01:42:59;;;;;;;14.40;7.47;;;4.00;99.90;;;;;;5029343;28;20053;-68
2021/12/20 01:45:27;;;;;;;14.10;6.95;;;3.90;99.90;;;;;;5028719;28;20053;-68
2021/12/20 01:48:04;;;;;;;13.23;6.35;;;3.90;99.90;;;;;;5029115;28;20053;-68
2021/12/20 01:51:00;;;;;;;17.05;7.30;;;4.00;99.90;;;;;;5028954;28;20392;-68
2021/12/20 01:53:28;;;;;;;13.50;6.55;;;4.00;99.90;;;;;;5028169;28;20044;-68
2021/12/20 01:55:57;;;;;;;14.48;7.28;;;4.00;99.90;;;;;;5014268;28;20433;-68
2021/12/20 01:58:28;;;;;;;12.98;6.65;;;4.00;99.90;;;;;;5030981;28;20034;-68
2021/12/20 02:03:42;;;;;;;15.02;7.47;;;4.00;99.90;;;;;;5022101;28;20054;-68
2021/12/20 02:08:55;;;;;;;13.23;6.47;;;4.10;99.90;;;;;;5028643;28;20981;-68
2021/12/20 02:11:24;;;;;;;13.43;6.97;;;4.10;99.90;;;;;;5014731;28;20380;-68
2021/12/20 02:13:51;;;;;;;13.70;6.90;;;4.10;99.90;;;;;;5027264;28;20050;-68
2021/12/20 02:16:20;;;;;;;13.00;6.78;;;4.10;99.90;;;;;;5025660;28;20068;-68
2021/12/20 02:18:48;;;;;;;12.48;6.68;;;4.10;99.90;;;;;;5027510;28;20440;-68
2021/12/20 02:21:16;;;;;;;14.45;6.80;;;4.10;99.90;;;;;;5026383;28;20041;-68
2021/12/20 02:23:44;;;;;;;14.63;6.82;;;4.10;99.90;;;;;;5027844;28;20053;-68
2021/12/20 02:26:14;;;;;;;16.25;6.75;;;4.10;99.90;;;;;;5028003;28;20045;-68
2021/12/20 02:28:45;;;;;;;14.75;7.38;;;4.00;99.90;;;;;;5026946;28;20045;-68
2021/12/20 02:36:59;;;;;;;14.10;7.30;;;4.00;99.90;;;;;;5028444;28;20041;-68
2021/12/20 02:39:27;;;;;;;13.93;6.70;;;4.00;99.90;;;;;;5022551;28;20033;-68
2021/12/20 02:41:54;;;;;;;13.40;6.68;;;4.00;99.90;;;;;;5027525;28;20049;-68
2021/12/20 02:44:24;;;;;;;15.35;6.40;;;4.00;99.90;;;;;;5028591;28;20050;-68
2021/12/20 02:49:23;;;;;;;13.73;6.32;;;4.00;99.90;;;;;;5021092;28;20053;-68
2021/12/20 02:51:53;;;;;;;14.10;6.15;;;4.00;99.90;;;;;;5028190;28;20095;-68
2021/12/20 02:54:22;;;;;;;11.88;6.25;;;4.00;99.90;;;;;;5028848;28;20507;-68
2021/12/20 02:56:50;;;;;;;12.93;7.03;;;4.00;99.90;;;;;;5028896;28;20041;-68
2021/12/20 02:59:18;;;;;;;12.05;6.18;;;4.10;99.90;;;;;;5035561;28;20041;-68
2021/12/20 03:01:50;;;;;;;12.18;6.63;;;4.00;99.90;;;;;;5031421;28;20110;-69
2021/12/20 03:04:17;;;;;;;;;;;4.00;99.90;;;;;;5032759;28;20049;-69
2021/12/20 03:06:54;;;;;;;12.13;6.30;;;4.00;99.90;;;;;;5031837;28;19921;-69
2021/12/20 03:09:27;;;;;;;12.68;6.28;;;4.00;99.90;;;;;;5031170;28;20515;-69
2021/12/20 03:11:58;;;;;;;16.00;6.40;;;3.90;99.90;;;;;;5032300;28;20053;-69
2021/12/20 03:14:31;;;;;;;13.77;7.03;;;3.90;99.90;;;;;;5032003;28;20052;-69
2021/12/20 03:17:00;;;;;;;14.02;5.82;;;3.90;99.90;;;;;;5032096;28;20049;-69
2021/12/20 03:19:28;;;;;;;12.88;6.20;;;3.80;99.90;;;;;;5031277;28;20033;-69
2021/12/20 03:21:56;;;;;;;11.80;6.15;;;3.80;99.90;;;;;;5031909;28;20076;-69
2021/12/20 03:24:23;;;;;;;12.70;6.80;;;3.80;99.90;;;;;;5031220;28;20057;-69
2021/12/20 03:26:51;;;;;;;14.00;5.78;;;3.80;99.90;;;;;;5033663;28;20052;-69
2021/12/20 03:29:18;;;;;;;14.73;6.57;;;3.80;99.90;;;;;;5036803;28;20060;-69
2021/12/20 03:31:46;;;;;;;11.82;5.63;;;3.70;99.90;;;;;;5032361;28;20053;-68
2021/12/20 03:34:15;;;;;;;12.77;5.78;;;3.70;99.90;;;;;;5029969;28;20939;-69
2021/12/20 03:36:43;;;;;;;11.93;5.88;;;3.70;99.90;;;;;;5031572;28;20052;-69
2021/12/20 03:39:10;;;;;;;13.20;5.78;;;3.70;99.90;;;;;;5031083;28;20045;-69
2021/12/20 03:41:38;;;;;;;14.73;6.68;;;3.70;99.90;;;;;;5030535;28;20053;-69
2021/12/20 03:44:06;;;;;;;11.20;5.70;;;3.70;99.90;;;;;;5031501;28;20492;-69
2021/12/20 03:46:34;;;;;;;12.98;5.45;;;3.70;99.90;;;;;;5030587;28;20071;-69
2021/12/20 03:49:02;;;;;;;11.57;5.90;;;3.70;99.90;;;;;;5030760;28;20107;-69
2021/12/20 03:51:30;;;;;;;10.85;5.30;;;3.80;99.90;;;;;;5029326;28;20073;-69
2021/12/20 03:53:57;;;;;;;11.68;5.70;;;3.80;99.90;;;;;;5030357;28;20052;-69
2021/12/20 03:56:25;;;;;;;12.02;6.20;;;3.80;99.90;;;;;;5029539;28;20030;-69
2021/12/20 03:58:52;;;;;;;11.68;5.55;;;3.80;99.90;;;;;;5031529;28;20053;-69
2021/12/20 04:01:20;;;;;;;12.40;5.40;;;3.70;99.90;;;;;;5027197;28;20076;-69
2021/12/20 04:03:49;;;;;;;13.60;5.97;;;3.70;99.90;;;;;;5029953;28;20500;-69
2021/12/20 04:06:17;;;;;;;12.02;5.50;;;3.70;99.90;;;;;;5031104;28;20049;-69
2021/12/20 04:08:46;;;;;;;11.10;4.75;;;3.80;99.90;;;;;;5030552;28;20041;-69
2021/12/20 04:11:13;;;;;;;11.07;5.40;;;3.80;99.90;;;;;;5027442;28;20053;-69
2021/12/20 04:13:40;;;;;;;10.07;4.80;;;3.70;99.90;;;;;;5030196;28;20045;-69
2021/12/20 04:16:08;;;;;;;9.73;5.18;;;3.70;99.90;;;;;;5030006;28;20554;-68
2021/12/20 04:18:35;;;;;;;12.63;5.47;;;3.70;99.90;;;;;;5029437;28;20041;-68
2021/12/20 04:21:06;;;;;;;10.70;5.05;;;3.80;99.90;;;;;;5030533;28;20053;-68
2021/12/20 04:23:33;;;;;;;12.52;5.40;;;3.70;99.90;;;;;;5034355;28;20040;-68
2021/12/20 04:26:01;;;;;;;9.88;4.95;;;3.70;99.90;;;;;;5029777;28;20098;-69
2021/12/20 04:28:28;;;;;;;11.57;4.80;;;3.70;99.90;;;;;;5029360;28;20045;-68
2021/12/20 04:30:56;;;;;;;11.18;5.05;;;3.70;99.90;;;;;;5012120;28;20128;-68
2021/12/20 04:33:23;;;;;;;10.77;4.63;;;3.70;99.90;;;;;;5030653;28;20049;-68
2021/12/20 04:35:51;;;;;;;11.50;5.55;;;3.60;99.90;;;;;;5030322;28;20049;-68
2021/12/20 04:38:19;;;;;;;10.52;4.45;;;3.60;99.90;;;;;;5028633;28;20045;-68
2021/12/20 04:40:46;;;;;;;9.25;4.53;;;3.40;99.90;;;;;;5030112;28;20041;-68
2021/12/20 04:43:14;;;;;;;10.38;5.07;;;3.30;99.90;;;;;;5028493;28;20381;-68
2021/12/20 04:45:41;;;;;;;9.73;4.68;;;3.30;99.90;;;;;;5029833;28;20567;-68
2021/12/20 04:48:09;;;;;;;12.30;4.80;;;3.20;99.90;;;;;;5030286;28;20048;-68
2021/12/20 04:50:37;;;;;;;10.88;5.32;;;3.10;99.90;;;;;;5028858;28;20131;-68
2021/12/20 04:53:05;;;;;;;11.27;5.38;;;3.10;99.90;;;;;;5030236;28;20060;-69
2021/12/20 04:55:33;;;;;;;13.05;5.82;;;3.10;99.90;;;;;;5030260;28;20068;-69
2021/12/20 04:58:05;;;;;;;13.93;5.65;;;3.00;99.90;;;;;;5032982;28;20484;-69
2021/12/20 05:00:34;;;;;;;10.57;5.13;;;2.90;99.90;;;;;;5029521;28;20045;-69
2021/12/20 05:03:02;;;;;;;14.00;6.28;;;2.80;99.90;;;;;;5028446;28;20049;-69
2021/12/20 05:05:29;;;;;;;11.75;4.95;;;2.70;99.90;;;;;;5028534;28;20037;-69
2021/12/20 05:08:03;;;;;;;10.60;5.40;;;2.60;99.90;;;;;;5028317;28;20037;-69
2021/12/20 05:10:34;;;;;;;11.88;5.30;;;2.60;99.90;;;;;;5029407;28;20296;-69
2021/12/20 05:13:08;;;;;;;11.60;5.93;;;2.50;99.90;;;;;;5028806;28;20045;-69
2021/12/20 05:15:36;;;;;;;14.75;5.63;;;2.40;99.90;;;;;;5028953;28;20320;-69
2021/12/20 05:18:08;;;;;;;14.40;5.38;;;2.30;99.90;;;;;;5023479;28;20089;-69
2021/12/20 05:20:36;;;;;;;12.75;5.95;;;2.20;99.90;;;;;;5028760;28;20048;-68
2021/12/20 05:23:04;;;;;;;13.48;5.88;;;2.20;99.90;;;;;;5028881;28;20484;-68
2021/12/20 05:25:32;;;;;;;13.55;5.90;;;2.20;99.90;;;;;;5028874;28;20124;-68
2021/12/20 05:27:59;;;;;;;15.77;6.35;;;2.10;99.90;;;;;;5029181;28;20558;-68
2021/12/20 05:30:27;;;;;;;17.25;6.20;;;2.10;99.90;;;;;;5028749;28;20049;-68
2021/12/20 05:32:55;;;;;;;14.07;6.22;;;2.00;99.90;;;;;;5028912;28;20119;-69
2021/12/20 05:35:23;;;;;;;12.15;5.60;;;2.00;99.90;;;;;;5029157;28;20045;-68
2021/12/20 05:37:51;;;;;;;13.40;6.38;;;1.90;99.90;;;;;;5024449;28;20405;-68
2021/12/20 05:40:20;;;;;;;14.52;7.97;;;1.90;99.90;;;;;;5028560;28;20038;-70
2021/12/20 05:42:48;;;;;;;16.98;8.25;;;1.90;99.90;;;;;;5029907;28;20053;-68
2021/12/20 05:45:16;;;;;;;13.10;7.10;;;1.90;99.90;;;;;;5029212;28;20128;-67
2021/12/20 05:47:44;;;;;;;12.40;6.45;;;1.80;99.90;;;;;;5027932;28;20055;-66
2021/12/20 05:50:15;;;;;;;15.30;6.38;;;1.80;99.90;;;;;;5029120;28;20480;-66
2021/12/20 05:52:42;;;;;;;15.50;5.85;;;1.90;99.90;;;;;;5029095;28;20053;-66
2021/12/20 05:55:10;;;;;;;12.57;6.32;;;1.90;99.90;;;;;;5028219;28;20056;-66
2021/12/20 05:57:38;;;;;;;13.05;5.90;;;1.90;99.90;;;;;;5027054;28;20041;-65
2021/12/20 06:00:12;;;;;;;12.77;6.32;;;1.90;99.90;;;;;;5029414;28;20525;-65
2021/12/20 06:02:46;;;;;;;12.18;6.00;;;1.90;99.90;;;;;;5026883;28;20041;-65
2021/12/20 06:05:14;;;;;;;13.50;6.10;;;1.90;99.90;;;;;;5022161;28;20664;-65
2021/12/20 06:07:42;;;;;;;14.88;6.88;;;1.90;99.90;;;;;;5027892;28;20463;-65
2021/12/20 06:10:12;;;;;;;12.20;6.20;;;1.90;99.90;;;;;;5020871;28;20053;-65
2021/12/20 06:12:40;;;;;;;14.00;7.05;;;1.80;99.90;;;;;;5029590;28;20042;-65
2021/12/20 06:15:09;;;;;;;14.70;7.28;;;1.70;99.90;;;;;;5029120;28;20038;-66
2021/12/20 06:17:36;;;;;;;16.48;6.90;;;1.70;99.90;;;;;;5029053;28;20076;-65
2021/12/20 06:20:06;;;;;;;16.17;7.68;;;1.60;99.90;;;;;;5028523;28;20450;-66
2021/12/20 06:22:33;;;;;;;13.60;7.38;;;1.60;99.90;;;;;;5028834;28;20454;-65
2021/12/20 06:25:01;;;;;;;14.93;7.00;;;1.50;99.90;;;;;;5027691;28;20060;-64
2021/12/20 06:27:28;;;;;;;11.88;5.78;;;1.50;99.90;;;;;;5019782;28;20069;-64
2021/12/20 06:29:55;;;;;;;16.77;6.88;;;1.40;99.90;;;;;;5022968;28;20053;-65
2021/12/20 06:32:23;;;;;;;18.13;7.70;;;1.30;99.90;;;;;;5029456;28;20046;-66
2021/12/20 06:34:50;;;;;;;13.45;6.40;;;1.30;99.90;;;;;;5032593;28;20045;-65
2021/12/20 06:37:17;;;;;;;13.98;7.30;;;1.20;99.90;;;;;;5029975;28;20087;-65
2021/12/20 06:39:44;;;;;;;14.63;7.05;;;1.20;99.90;;;;;;5031859;28;20037;-65
2021/12/20 06:42:12;;;;;;;15.55;8.32;;;1.10;99.90;;;;;;5031832;28;20431;-65
2021/12/20 06:44:39;;;;;;;13.60;7.40;;;1.10;99.90;;;;;;5029125;28;20060;-65
2021/12/20 06:47:07;;;;;;;18.15;9.65;;;1.10;99.90;;;;;;5030716;28;20049;-65
2021/12/20 06:49:34;;;;;;;16.70;9.00;;;1.00;99.90;;;;;;5032461;28;20049;-65
2021/12/20 06:52:03;;;;;;;13.90;7.63;;;1.00;99.90;;;;;;5032377;28;20033;-65
2021/12/20 06:54:30;;;;;;;14.88;7.43;;;1.00;99.90;;;;;;5031823;28;20034;-65
2021/12/20 06:56:58;;;;;;;16.83;8.13;;;0.90;99.90;;;;;;5032248;28;20071;-65
2021/12/20 06:59:25;;;;;;;17.48;8.13;;;0.90;99.90;;;;;;5030815;28;20038;-65
2021/12/20 07:01:53;;;;;;;17.08;7.95;;;0.90;99.90;;;;;;5032093;28;20775;-65
2021/12/20 07:04:20;;;;;;;14.50;6.97;;;0.90;99.90;;;;;;5032062;28;20038;-65
2021/12/20 07:06:48;;;;;;;16.67;6.80;;;0.90;99.90;;;;;;5032019;28;20052;-65
2021/12/20 07:09:15;;;;;;;20.88;7.03;;;0.90;99.90;;;;;;5031446;28;20063;-65
2021/12/20 07:11:44;;;;;;;18.73;8.13;;;0.90;99.90;;;;;;5031923;28;20056;-65
2021/12/20 07:14:11;;;;;;;14.68;7.32;;;0.90;99.90;;;;;;5032069;28;20111;-65
2021/12/20 07:16:40;;;;;;;14.80;7.28;;;0.90;99.90;;;;;;5030893;28;20038;-65
2021/12/20 07:19:07;;;;;;;17.30;7.65;;;0.90;99.90;;;;;;5031748;28;20500;-65
2021/12/20 07:21:35;;;;;;;21.77;8.10;;;0.80;99.90;;;;;;5031990;28;20053;-65
2021/12/20 07:24:03;;;;;;;15.85;8.25;;;0.80;99.90;;;;;;5025844;28;20045;-65
2021/12/20 07:26:31;;;;;;;13.45;7.13;;;0.80;99.90;;;;;;5031952;28;20037;-65
2021/12/20 07:28:58;;;;;;;12.90;7.22;;;0.80;99.90;;;;;;5031898;28;20515;-65
2021/12/20 07:31:26;;;;;;;15.10;7.32;;;0.80;99.90;;;;;;5031762;28;20037;-65
2021/12/20 07:33:53;;;;;;;17.02;7.43;;;0.90;99.90;;;;;;5025073;28;20048;-65
2021/12/20 07:36:22;;;;;;;18.30;7.88;;;1.00;99.90;;;;;;5031689;28;20322;-65
2021/12/20 07:38:50;;;;;;;16.20;8.10;;;0.90;99.90;;;;;;5031479;28;20132;-65
2021/12/20 07:41:21;;;;;;;23.70;8.25;;;1.00;99.90;;;;;;5031106;28;20556;-65
2021/12/20 07:43:50;;;;;;;20.10;8.48;;;1.00;99.90;;;;;;5031031;28;20049;-65
2021/12/20 07:46:19;;;;;;;15.57;7.38;;;1.00;99.90;;;;;;5031330;28;20103;-65
2021/12/20 07:48:47;;;;;;;16.60;7.47;;;1.00;99.90;;;;;;5031282;28;20056;-65
2021/12/20 07:51:14;;;;;;;14.63;7.18;;;1.10;99.90;;;;;;5030042;28;20543;-65
2021/12/20 07:53:42;;;;;;;16.45;7.50;;;1.10;99.90;;;;;;5029576;28;20041;-65
2021/12/20 07:56:09;;;;;;;16.55;7.80;;;1.00;99.90;;;;;;5030594;28;20118;-65
2021/12/20 07:58:36;;;;;;;17.88;7.00;;;1.10;99.90;;;;;;5034078;28;20492;-65
2021/12/20 08:01:05;;;;;;;16.85;7.00;;;1.10;99.90;;;;;;5030806;28;20045;-65
2021/12/20 08:03:34;;;;;;;14.85;6.82;;;1.10;99.90;;;;;;5029648;28;20049;-65
2021/12/20 08:06:02;;;;;;;21.95;7.93;;;1.10;99.90;;;;;;5025436;28;20050;-65
2021/12/20 08:08:30;;;;;;;17.52;7.78;;;1.20;99.90;;;;;;5031387;28;20069;-65
2021/12/20 08:10:58;;;;;;;13.98;6.38;;;1.30;99.90;;;;;;5062953;28;20065;-65
2021/12/20 08:13:28;;;;;;;17.08;7.10;;;1.30;99.90;;;;;;5031383;28;20675;-65
2021/12/20 08:15:55;;;;;;;21.67;7.93;;;1.30;99.90;;;;;;5030565;28;20073;-65
2021/12/20 08:18:23;;;;;;;16.90;8.05;;;1.40;99.90;;;;;;5028884;28;20091;-65
2021/12/20 08:20:51;;;;;;;19.52;7.82;;;1.40;99.90;;;;;;5030126;28;20061;-65
2021/12/20 08:23:21;;;;;;;19.95;8.40;;;1.40;99.90;;;;;;5028924;28;20060;-65
2021/12/20 08:25:49;;;;;;;19.85;8.15;;;1.50;99.90;;;;;;5029657;28;20060;-65
2021/12/20 08:28:16;;;;;;;18.88;8.32;;;1.60;99.90;;;;;;5030525;28;20133;-65
2021/12/20 08:30:44;;;;;;;21.73;9.18;;;1.60;99.90;;;;;;5028842;28;20073;-65
2021/12/20 08:33:15;;;;;;;17.95;8.32;;;1.60;99.90;;;;;;5029185;28;20061;-66
2021/12/20 08:35:43;;;;;;;24.83;9.80;;;1.60;99.90;;;;;;5029948;28;20041;-65
2021/12/20 08:38:10;;;;;;;20.50;10.00;;;1.70;99.90;;;;;;5030166;28;20752;-65
2021/12/20 08:40:38;;;;;;;17.92;9.45;;;1.70;99.90;;;;;;5030184;28;20053;-65
2021/12/20 08:43:06;;;;;;;16.08;8.68;;;1.80;99.90;;;;;;5029777;28;20046;-65
2021/12/20 08:45:34;;;;;;;17.77;8.23;;;1.90;99.90;;;;;;5029687;28;20755;-65
2021/12/20 08:48:02;;;;;;;16.17;8.52;;;2.00;99.90;;;;;;5029627;28;20567;-65
2021/12/20 08:50:30;;;;;;;19.25;9.48;;;2.00;99.90;;;;;;5029539;28;20124;-65
2021/12/20 08:52:57;;;;;;;18.17;8.40;;;2.00;99.90;;;;;;5029893;28;20393;-65
2021/12/20 08:55:25;;;;;;;15.73;8.15;;;2.00;99.90;;;;;;5025882;28;20044;-65
2021/12/20 08:57:53;;;;;;;18.67;8.02;;;2.00;99.90;;;;;;5033224;28;20476;-65
2021/12/20 09:00:26;;;;;;;23.20;8.43;;;2.00;99.90;;;;;;5029520;28;20091;-65
2021/12/20 09:02:55;;;;;;;24.05;8.85;;;2.10;99.90;;;;;;5029682;28;20045;-65
2021/12/20 09:05:25;;;;;;;15.95;8.05;;;2.20;99.90;;;;;;5029770;28;20045;-65
2021/12/20 09:07:55;;;;;;;16.70;7.30;;;2.10;99.90;;;;;;5030388;28;20077;-65
2021/12/20 09:10:23;;;;;;;16.15;7.90;;;2.20;99.90;;;;;;5029829;28;20847;-65
2021/12/20 09:12:50;;;;;;;17.02;8.00;;;2.30;99.90;;;;;;5028989;28;20072;-65
2021/12/20 09:15:19;;;;;;;16.65;7.78;;;2.40;99.90;;;;;;5028810;28;20042;-65
2021/12/20 09:17:52;;;;;;;23.05;9.73;;;2.50;99.90;;;;;;5028889;28;20041;-65
2021/12/20 09:20:22;;;;;;;18.90;8.85;;;2.60;99.90;;;;;;5029342;28;20465;-65
2021/12/20 09:22:57;;;;;;;15.25;7.82;;;2.60;99.90;;;;;;5029032;28;20045;-65
2021/12/20 09:25:26;;;;;;;21.52;8.48;;;2.60;99.90;;;;;;5029358;28;20076;-65
2021/12/20 09:27:56;;;;;;;17.92;8.35;;;2.60;99.90;;;;;;5028750;28;20076;-65
2021/12/20 09:30:25;;;;;;;21.05;8.00;;;2.70;99.90;;;;;;5028377;28;20065;-65
2021/12/20 09:32:53;;;;;;;16.10;7.43;;;2.70;99.90;;;;;;5029128;28;20484;-65
2021/12/20 09:35:21;;;;;;;16.58;7.53;;;2.80;99.90;;;;;;5029250;28;20045;-65
2021/12/20 09:37:51;;;;;;;16.00;8.25;;;2.90;99.90;;;;;;5028074;28;20059;-65
2021/12/20 09:40:37;;;;;;;13.48;7.25;;;3.00;99.90;;;;;;5028351;28;20045;-65
2021/12/20 09:43:09;;;;;;;17.42;8.35;;;3.00;99.90;;;;;;5028689;28;20497;-65
2021/12/20 09:45:37;;;;;;;18.73;8.50;;;3.20;99.90;;;;;;5029384;28;20546;-65
2021/12/20 09:48:05;;;;;;;14.13;7.75;;;3.30;99.90;;;;;;5028542;28;20041;-65
2021/12/20 09:50:34;;;;;;;17.55;6.97;;;3.40;99.90;;;;;;5029491;28;20075;-65
2021/12/20 09:53:07;;;;;;;14.20;6.57;;;3.40;99.90;;;;;;5026848;28;20137;-65
2021/12/20 09:55:36;;;;;;;13.98;6.47;;;3.50;99.90;;;;;;5028248;28;20049;-65
2021/12/20 09:58:05;;;;;;;16.95;6.50;;;3.50;99.90;;;;;;5032705;28;20140;-67
2021/12/20 10:00:33;;;;;;;14.15;5.97;;;3.70;99.90;;;;;;5027949;28;20045;-65
2021/12/20 10:03:02;;;;;;;13.52;5.85;;;3.90;99.90;;;;;;5027411;28;20057;-65
2021/12/20 10:05:30;;;;;;;18.05;6.90;;;4.00;99.90;;;;;;5028116;28;20085;-65
2021/12/20 10:07:58;;;;;;;17.35;7.18;;;4.20;99.90;;;;;;5028425;28;20435;-65
2021/12/20 10:10:45;;;;;;;14.70;6.40;;;4.40;99.90;;;;;;5028929;28;20103;-65
2021/12/20 10:13:34;;;;;;;14.18;6.10;;;4.40;99.90;;;;;;5021711;28;20049;-65
2021/12/20 10:16:15;;;;;;;14.55;6.75;;;4.40;99.90;;;;;;5027106;28;20854;-65
2021/12/20 10:18:44;;;;;;;14.53;6.40;;;4.50;99.90;;;;;;5027764;28;20041;-65
2021/12/20 10:21:11;;;;;;;17.02;5.93;;;4.60;99.90;;;;;;5028609;28;20045;-65
2021/12/20 10:23:44;;;;;;;13.38;5.38;;;4.70;99.90;;;;;;5028060;28;20052;-65
2021/12/20 10:26:19;;;;;;;14.27;6.43;;;4.70;99.90;;;;;;5027976;28;20115;-67
2021/12/20 10:28:53;;;;;;;12.65;5.32;;;4.70;99.90;;;;;;5026262;28;20582;-66
2021/12/20 10:31:24;;;;;;;17.02;6.00;;;4.70;99.90;;;;;;5027041;28;20045;-66
2021/12/20 10:34:00;;;;;;;18.48;5.22;;;4.70;99.90;;;;;;5028378;28;20048;-65
2021/12/20 10:36:31;;;;;;;12.60;5.45;;;5.00;99.90;;;;;;5026697;28;20068;-64
2021/12/20 10:39:00;;;;;;;14.38;5.78;;;5.90;99.90;;;;;;5028801;28;20053;-65
2021/12/20 10:41:35;;;;;;;10.50;4.65;;;7.20;99.90;;;;;;5027890;28;20041;-65
2021/12/20 10:44:15;;;;;;;17.85;5.80;;;8.30;99.90;;;;;;5028643;28;20492;-65
2021/12/20 10:46:52;;;;;;;10.30;3.78;;;8.20;99.90;;;;;;5028678;28;20500;-65
2021/12/20 10:49:26;;;;;;;7.97;2.70;;;8.50;99.90;;;;;;5028236;28;20579;-65
2021/12/20 10:51:54;;;;;;;9.95;2.40;;;8.40;99.90;;;;;;5027988;28;20042;-65
2021/12/20 10:54:25;;;;;;;5.45;2.00;;;7.80;99.90;;;;;;5025468;28;20065;-65
2021/12/20 10:57:00;;;;;;;9.27;2.67;;;7.30;99.90;;;;;;5021941;28;20057;-65
2021/12/20 10:59:30;;;;;;;7.72;2.50;;;8.00;99.90;;;;;;5025417;28;20048;-66
2021/12/20 11:04:35;;;;;;;6.45;2.30;;;11.40;99.90;;;;;;5027336;28;20056;-65
2021/12/20 11:09:45;;;;;;;6.93;1.75;;;13.50;99.90;;;;;;5026293;28;20045;-65
2021/12/20 11:12:25;;;;;;;9.13;3.80;;;14.30;99.90;;;;;;5023446;28;20052;-65
2021/12/20 11:14:56;;;;;;;8.20;2.78;;;14.80;99.90;;;;;;5027574;28;20041;-65
2021/12/20 11:17:24;;;;;;;6.53;1.80;;;14.70;99.90;;;;;;5028234;28;20037;-65
2021/12/20 11:19:54;;;;;;;5.70;1.80;;;15.30;99.90;;;;;;5028050;28;20136;-65
2021/12/20 11:22:29;;;;;;;5.05;1.65;;;15.70;99.90;;;;;;5030351;28;20083;-65
2021/12/20 11:24:58;;;;;;;5.57;2.00;;;16.00;99.90;;;;;;5029571;28;20053;-66
2021/12/20 11:27:33;;;;;;;8.52;1.92;;;16.10;99.90;;;;;;5030294;28;20061;-64
2021/12/20 11:30:13;;;;;;;7.70;2.35;;;16.60;98.80;;;;;;5031562;28;20514;-66
2021/12/20 11:32:42;;;;;;;6.22;1.73;;;17.00;96.90;;;;;;5030443;28;20484;-65
2021/12/20 11:35:15;;;;;;;5.47;1.55;;;17.20;95.70;;;;;;5029276;28;20111;-65
2021/12/20 11:37:42;;;;;;;5.65;1.55;;;17.50;96.50;;;;;;5028155;28;20504;-64
2021/12/20 11:40:13;;;;;;;6.47;1.67;;;17.60;95.70;;;;;;5029294;28;20042;-64
2021/12/20 11:42:41;;;;;;;10.32;1.90;;;18.50;93.90;;;;;;5025942;28;20416;-66
2021/12/20 11:45:09;;;;;;;5.80;1.60;;;18.70;92.80;;;;;;5030073;28;20107;-65
2021/12/20 11:47:56;;;;;;;7.85;2.70;;;19.00;91.70;;;;;;5029349;28;20056;-65
2021/12/20 11:50:33;;;;;;;6.25;1.58;;;19.10;90.70;;;;;;5016896;28;20067;-66
2021/12/20 11:53:09;;;;;;;5.00;1.98;;;18.90;91.00;;;;;;5028479;28;20060;-65
2021/12/20 11:55:43;;;;;;;5.45;1.48;;;19.40;88.30;;;;;;5031043;28;20046;-65
2021/12/20 11:58:19;;;;;;;6.82;1.70;;;18.80;87.20;;;;;;5034004;28;20037;-64
2021/12/20 12:00:58;;;;;;;10.35;2.60;;;18.70;89.30;;;;;;5031025;28;20042;-64
2021/12/20 12:03:34;;;;;;;6.90;1.88;;;18.10;90.00;;;;;;5030296;28;20073;-64
2021/12/20 12:06:13;;;;;;;13.68;4.97;;;18.50;90.20;;;;;;5030528;28;20115;-64
2021/12/20 12:08:51;;;;;;;8.45;3.20;;;18.60;89.60;;;;;;5029207;28;20639;-64
2021/12/20 12:11:24;;;;;;;8.88;1.90;;;18.80;90.80;;;;;;5017330;28;20111;-65
2021/12/20 12:14:08;;;;;;;6.72;1.98;;;19.00;89.60;;;;;;5029100;28;20041;-65
2021/12/20 12:17:01;;;;;;;5.38;1.67;;;18.80;89.20;;;;;;5026885;28;20103;-65
2021/12/20 12:20:04;;;;;;;4.75;1.50;;;18.50;84.60;;;;;;5043158;28;20136;-65
2021/12/20 12:22:37;;;;;;;4.70;1.38;;;17.60;84.40;;;;;;5007077;28;20137;-64
2021/12/20 12:25:09;;;;;;;5.00;1.88;;;17.00;85.00;;;;;;5008516;28;20046;-64
2021/12/20 12:27:40;;;;;;;7.28;2.80;;;16.30;86.50;;;;;;5008122;28;20948;-64
2021/12/20 12:30:11;;;;;;;8.20;3.03;;;16.30;87.40;;;;;;5002622;28;20081;-64
2021/12/20 12:32:47;;;;;;;7.43;3.28;;;16.10;86.70;;;;;;5026717;28;20041;-65
2021/12/20 12:35:39;;;;;;;4.97;1.73;;;16.20;86.90;;;;;;5001429;28;20048;-64
2021/12/20 12:38:31;;;;;;;6.32;1.70;;;16.40;88.60;;;;;;5023895;28;20042;-65
2021/12/20 12:41:05;;;;;;;3.95;1.60;;;17.00;86.70;;;;;;5014566;28;20444;-65
2021/12/20 12:43:55;;;;;;;4.18;1.58;;;17.80;83.30;;;;;;5025481;28;20069;-65
2021/12/20 12:46:41;;;;;;;3.88;1.40;;;18.10;81.90;;;;;;5024972;28;20049;-65
2021/12/20 12:49:21;;;;;;;4.82;1.95;;;18.50;82.70;;;;;;5018230;28;20038;-65
2021/12/20 12:51:51;;;;;;;5.63;1.70;;;19.10;81.40;;;;;;5011342;28;20073;-65
2021/12/20 12:55:06;;;;;;;4.05;1.40;;;19.30;80.10;;;;;;5017274;28;20042;-66
2021/12/20 12:57:39;;;;;;;5.47;1.60;;;19.40;79.70;;;;;;4952220;28;20055;-66
2021/12/20 13:00:15;;;;;;;5.43;1.40;;;19.90;79.10;;;;;;4942988;29;20079;-66
2021/12/20 13:02:48;;;;;;;3.85;1.40;;;20.40;79.90;;;;;;4949932;28;20049;-66
2021/12/20 13:05:21;;;;;;;7.00;1.60;;;20.50;79.80;;;;;;4951108;28;20573;-66
2021/12/20 13:07:52;;;;;;;5.63;1.73;;;20.50;77.10;;;;;;4949341;29;20191;-66
2021/12/20 13:10:59;;;;;;;4.05;1.45;;;20.70;77.10;;;;;;4949686;29;20055;-66
2021/12/20 13:13:28;;;;;;;5.30;1.77;;;20.40;79.00;;;;;;4949392;29;20062;-65
2021/12/20 13:16:02;;;;;;;6.38;2.47;;;20.70;76.10;;;;;;4948738;29;20443;-65
2021/12/20 13:18:35;;;;;;;6.32;2.03;;;20.90;75.80;;;;;;4949166;29;20039;-65
2021/12/20 13:21:07;;;;;;;4.93;1.77;;;21.00;76.10;;;;;;4944493;28;20203;-65
2021/12/20 13:23:39;;;;;;;6.07;1.83;;;21.60;75.50;;;;;;4949512;29;20129;-65
2021/12/20 13:26:11;;;;;;;;;;;21.40;72.90;;;;;;4948067;28;20050;-65